Arendtsville, Pennsylvania
Current Conditions -  °F | °C
As of 8:33 AM on Wednesday 26 Nov 2014 (Local Time) from KRYT Reporting Station
Light Snow Light Snow  
Wind Chill: 34°   Ceiling: 600
Heat Index: 34°   Visibility: 1mi
Dew Point: 32°   Wind: 0mph
Humidity: 93%   Direction: NA
Pressure: 30.06"   Gusts: NA
Location:  39.92°N, 77.3°W
Report Text: KRYT 261333Z AUTO 00000KT 1SM -SN BR OVC006 01/00 A3006 RMK AO2 RAE1258SNB1258 P0007 $
Loading
Personal Weather Stations






























Interactive Weather Map New forecast layout! Learn more

10-Day Weather Forecast

Advertisements
Track Severe Weather on mobile